createdAt,value
2022-11-26T00:01:42.450Z,7.00
2022-11-26T00:04:09.439Z,9.37
2022-11-26T00:06:43.941Z,9.63
2022-11-26T00:09:15.788Z,7.93
2022-11-26T00:11:42.071Z,6.80
2022-11-26T00:14:16.657Z,8.33
2022-11-26T00:16:44.274Z,6.80
2022-11-26T00:19:10.537Z,9.27
2022-11-26T00:21:40.275Z,6.10
2022-11-26T00:24:27.020Z,7.30
2022-11-26T00:26:57.860Z,7.97
2022-11-26T00:29:24.113Z,8.43
2022-11-26T00:31:50.309Z,7.67
2022-11-26T00:34:16.761Z,6.73
2022-11-26T00:36:43.742Z,6.10
2022-11-26T00:39:17.040Z,8.77
2022-11-26T00:41:49.793Z,7.17
2022-11-26T00:44:23.462Z,9.00
2022-11-26T00:46:50.757Z,8.00
2022-11-26T00:49:17.764Z,9.13
2022-11-26T00:51:46.216Z,9.83
2022-11-26T00:54:16.858Z,9.60
2022-11-26T00:56:43.636Z,8.47
2022-11-26T00:59:14.728Z,12.13
2022-11-26T01:01:41.324Z,10.80
2022-11-26T01:04:07.885Z,10.80
2022-11-26T01:06:39.034Z,10.57
2022-11-26T01:09:07.394Z,9.60
2022-11-26T01:11:33.683Z,10.63
2022-11-26T01:13:59.860Z,12.93
2022-11-26T01:16:29.589Z,11.33
2022-11-26T01:18:58.641Z,10.90
2022-11-26T01:21:27.843Z,11.43
2022-11-26T01:23:54.151Z,12.00
2022-11-26T01:26:26.736Z,10.90
2022-11-26T01:28:54.734Z,11.20
2022-11-26T01:31:24.823Z,11.40
2022-11-26T01:33:51.480Z,9.57
2022-11-26T01:36:34.273Z,10.07
2022-11-26T01:39:06.764Z,8.83
2022-11-26T01:42:06.026Z,10.60
2022-11-26T01:44:35.549Z,10.47
2022-11-26T01:47:20.487Z,10.63
2022-11-26T01:50:27.055Z,10.90
2022-11-26T01:53:10.463Z,10.23
2022-11-26T01:55:45.724Z,10.43
2022-11-26T01:58:19.102Z,11.60
2022-11-26T02:00:48.473Z,11.97
2022-11-26T02:03:15.568Z,11.60
2022-11-26T02:05:53.715Z,10.37
2022-11-26T02:08:20.265Z,10.63
2022-11-26T02:10:46.559Z,9.27
2022-11-26T02:13:12.938Z,10.13
2022-11-26T02:16:06.933Z,10.17
2022-11-26T02:18:43.907Z,10.63
2022-11-26T02:21:24.255Z,11.47
2022-11-26T02:24:31.192Z,11.37
2022-11-26T02:27:34.964Z,10.93
2022-11-26T02:30:06.340Z,10.10
2022-11-26T02:32:58.133Z,8.80
2022-11-26T02:35:46.624Z,10.97
2022-11-26T02:38:32.223Z,11.43
2022-11-26T02:40:58.429Z,11.73
2022-11-26T02:43:26.831Z,10.47
2022-11-26T02:46:01.071Z,12.63
2022-11-26T02:48:35.319Z,13.47
2022-11-26T02:51:12.116Z,13.53
2022-11-26T02:53:39.795Z,13.07
2022-11-26T02:56:16.406Z,13.17
2022-11-26T02:58:44.110Z,10.93
2022-11-26T03:01:21.735Z,11.93
2022-11-26T03:03:52.278Z,10.40
2022-11-26T03:06:19.926Z,10.20
2022-11-26T03:08:46.229Z,11.27
2022-11-26T03:11:12.792Z,11.87
2022-11-26T03:13:38.960Z,13.00
2022-11-26T03:16:05.243Z,10.43
2022-11-26T03:18:31.450Z,8.97
2022-11-26T03:20:57.622Z,9.77
2022-11-26T03:23:23.755Z,11.07
2022-11-26T03:25:49.901Z,12.53
2022-11-26T03:28:16.127Z,10.03
2022-11-26T03:30:42.525Z,10.77
2022-11-26T03:33:08.668Z,12.17
2022-11-26T03:35:34.814Z,10.73
2022-11-26T03:38:00.967Z,12.17
2022-11-26T03:40:27.336Z,12.93
2022-11-26T03:42:53.507Z,13.70
2022-11-26T03:45:19.696Z,11.83
2022-11-26T03:47:45.821Z,13.07
2022-11-26T03:50:12.136Z,11.33
2022-11-26T03:52:38.279Z,11.47
2022-11-26T03:55:04.846Z,12.23
2022-11-26T03:57:31.006Z,12.20
2022-11-26T03:59:57.387Z,13.57
2022-11-26T04:02:23.559Z,11.37
2022-11-26T04:04:49.819Z,11.27
2022-11-26T04:07:16.067Z,12.97
2022-11-26T04:09:42.346Z,10.33
2022-11-26T04:12:08.791Z,9.43
2022-11-26T04:14:34.956Z,11.17
2022-11-26T04:17:01.144Z,10.00
2022-11-26T04:19:27.389Z,11.10
2022-11-26T04:21:53.555Z,11.47
2022-11-26T04:24:19.676Z,9.00
2022-11-26T04:26:46.592Z,10.27
2022-11-26T04:29:12.794Z,9.57
2022-11-26T04:31:39.035Z,10.17
2022-11-26T04:34:05.289Z,7.67
2022-11-26T04:36:32.059Z,6.73
2022-11-26T04:38:58.322Z,9.67
2022-11-26T04:41:25.101Z,9.23
2022-11-26T04:43:51.966Z,8.43
2022-11-26T04:46:18.125Z,11.17
2022-11-26T04:48:44.393Z,10.53
2022-11-26T04:51:10.526Z,11.40
2022-11-26T04:53:36.674Z,10.60
2022-11-26T04:56:02.934Z,9.93
2022-11-26T04:58:29.073Z,10.73
2022-11-26T05:00:55.266Z,11.17
2022-11-26T05:03:21.543Z,9.07
2022-11-26T05:05:47.914Z,11.83
2022-11-26T05:08:14.304Z,10.03
2022-11-26T05:10:40.461Z,12.00
2022-11-26T05:13:06.659Z,12.30
2022-11-26T05:15:32.921Z,13.30
2022-11-26T05:17:59.059Z,13.17
2022-11-26T05:20:25.416Z,12.77
2022-11-26T05:22:51.541Z,13.10
2022-11-26T05:25:17.771Z,13.07
2022-11-26T05:27:43.910Z,12.13
2022-11-26T05:30:10.900Z,12.23
2022-11-26T05:32:37.112Z,13.33
2022-11-26T05:35:03.860Z,11.83
2022-11-26T05:37:30.113Z,12.30
2022-11-26T05:39:56.242Z,12.63
2022-11-26T05:42:22.429Z,11.90
2022-11-26T05:44:48.573Z,12.30
2022-11-26T05:47:14.744Z,12.53
2022-11-26T05:49:41.119Z,13.67
2022-11-26T05:52:07.282Z,12.67
2022-11-26T05:54:33.414Z,10.70
2022-11-26T05:57:00.463Z,8.83
2022-11-26T05:59:27.455Z,10.27
2022-11-26T06:01:53.628Z,11.23
2022-11-26T06:04:19.803Z,9.73
2022-11-26T06:06:46.004Z,10.67
2022-11-26T06:09:13.218Z,10.60
2022-11-26T06:11:39.508Z,10.40
2022-11-26T06:14:05.798Z,10.80
2022-11-26T06:16:32.014Z,9.83
2022-11-26T06:18:58.427Z,10.43
2022-11-26T06:21:24.686Z,11.27
2022-11-26T06:23:57.665Z,8.70
2022-11-26T06:26:25.534Z,8.50
2022-11-26T06:28:51.727Z,9.07
2022-11-26T06:31:17.879Z,10.90
2022-11-26T06:33:44.022Z,9.77
2022-11-26T06:36:10.626Z,9.03
2022-11-26T06:38:36.788Z,9.20
2022-11-26T06:41:07.157Z,8.03
2022-11-26T06:43:33.733Z,7.83
2022-11-26T06:46:09.311Z,9.93
2022-11-26T06:48:38.571Z,8.20
2022-11-26T06:51:08.090Z,10.73
2022-11-26T06:53:34.319Z,9.23
2022-11-26T06:56:03.026Z,9.47
2022-11-26T06:58:30.776Z,8.43
2022-11-26T07:00:57.362Z,10.50
2022-11-26T07:03:28.103Z,9.83
2022-11-26T07:05:58.217Z,9.33
2022-11-26T07:08:24.368Z,8.20
2022-11-26T07:10:50.550Z,11.50
2022-11-26T07:13:16.686Z,11.70
2022-11-26T07:15:42.913Z,8.60
2022-11-26T07:18:09.145Z,10.07
2022-11-26T07:20:36.588Z,9.53
2022-11-26T07:23:03.880Z,6.63
2022-11-26T07:25:30.830Z,7.60
2022-11-26T07:27:57.925Z,8.07
2022-11-26T07:30:27.109Z,8.43
2022-11-26T07:32:53.263Z,7.23
2022-11-26T07:35:19.626Z,7.30
2022-11-26T07:37:45.958Z,6.57
2022-11-26T07:40:12.839Z,7.00
2022-11-26T07:42:39.177Z,7.30
2022-11-26T07:45:06.055Z,7.43
2022-11-26T07:47:32.505Z,7.03
2022-11-26T07:49:58.891Z,6.00
2022-11-26T07:52:25.051Z,6.43
2022-11-26T07:54:51.203Z,7.90
2022-11-26T07:57:17.617Z,6.27
2022-11-26T07:59:43.793Z,6.77
2022-11-26T08:02:17.305Z,6.50
2022-11-26T08:04:43.530Z,6.30
2022-11-26T08:07:09.745Z,6.20
2022-11-26T08:09:36.271Z,6.20
2022-11-26T08:12:02.749Z,6.97
2022-11-26T08:14:29.250Z,7.20
2022-11-26T08:16:56.473Z,7.03
2022-11-26T08:19:22.777Z,6.07
2022-11-26T08:21:49.033Z,6.60
2022-11-26T08:24:18.697Z,6.00
2022-11-26T08:26:45.143Z,5.13
2022-11-26T08:29:12.992Z,6.00
2022-11-26T08:31:45.651Z,5.40
2022-11-26T08:34:15.233Z,6.37
2022-11-26T08:36:42.425Z,5.90
2022-11-26T08:39:13.443Z,5.07
2022-11-26T08:41:39.780Z,5.93
2022-11-26T08:44:07.546Z,5.67
2022-11-26T08:46:37.079Z,6.20
2022-11-26T08:49:04.343Z,6.27
2022-11-26T08:51:30.607Z,5.00
2022-11-26T08:53:56.846Z,5.37
2022-11-26T08:56:24.103Z,5.50
2022-11-26T08:58:50.944Z,5.43
2022-11-26T09:01:24.113Z,5.37
2022-11-26T09:03:53.334Z,4.73
2022-11-26T09:06:22.169Z,4.93
2022-11-26T09:09:07.212Z,5.47
2022-11-26T09:11:37.958Z,4.87
2022-11-26T09:14:05.017Z,4.93
2022-11-26T09:16:32.287Z,4.50
2022-11-26T09:19:05.105Z,4.90
2022-11-26T09:21:33.906Z,4.40
2022-11-26T09:24:00.617Z,5.03
2022-11-26T09:26:28.972Z,4.60
2022-11-26T09:28:55.161Z,4.27
2022-11-26T09:31:21.372Z,5.93
2022-11-26T09:33:47.925Z,4.53
2022-11-26T09:36:16.112Z,3.93
2022-11-26T09:38:43.133Z,5.27
2022-11-26T09:41:46.662Z,5.40
2022-11-26T09:44:39.270Z,4.33
2022-11-26T09:47:16.910Z,6.33
2022-11-26T09:50:05.429Z,5.20
2022-11-26T09:52:47.530Z,5.37
2022-11-26T09:55:34.321Z,4.63
2022-11-26T09:58:27.522Z,4.97
2022-11-26T10:00:58.595Z,4.67
2022-11-26T10:03:32.847Z,4.80
2022-11-26T10:06:25.190Z,4.50
2022-11-26T10:09:30.397Z,4.20
2022-11-26T10:12:50.566Z,4.40
2022-11-26T10:15:49.875Z,3.83
2022-11-26T10:19:02.607Z,3.57
2022-11-26T10:24:37.761Z,4.63
2022-11-26T10:27:14.771Z,4.60
2022-11-26T10:29:47.244Z,4.10
2022-11-26T10:32:27.608Z,4.47
2022-11-26T10:34:58.247Z,3.70
2022-11-26T10:37:27.886Z,4.20
2022-11-26T10:40:15.844Z,4.50
2022-11-26T10:43:05.091Z,4.30
2022-11-26T10:45:43.375Z,3.93
2022-11-26T10:48:34.058Z,4.10
2022-11-26T10:51:15.906Z,4.27
2022-11-26T10:54:03.375Z,4.33
2022-11-26T10:56:46.573Z,4.70
2022-11-26T10:59:56.755Z,4.20
2022-11-26T11:02:36.526Z,3.77
2022-11-26T11:05:08.329Z,4.30
2022-11-26T11:07:37.420Z,4.30
2022-11-26T11:10:09.580Z,4.60
2022-11-26T11:12:52.846Z,5.00
2022-11-26T11:15:28.230Z,5.47
2022-11-26T11:18:18.748Z,5.37
2022-11-26T11:20:57.677Z,4.57
2022-11-26T11:23:45.653Z,5.67
2022-11-26T11:26:20.560Z,4.80
2022-11-26T11:28:51.285Z,4.83
2022-11-26T11:31:24.527Z,5.30
2022-11-26T11:34:10.203Z,4.70
2022-11-26T11:36:36.425Z,5.13
2022-11-26T11:39:04.236Z,6.07
2022-11-26T11:41:44.640Z,6.17
2022-11-26T11:44:38.680Z,5.47
2022-11-26T11:47:33.277Z,5.67
2022-11-26T11:50:29.118Z,5.57
2022-11-26T11:53:07.891Z,6.20
2022-11-26T11:56:21.593Z,5.80
2022-11-26T11:59:35.344Z,6.27
2022-11-26T12:02:52.879Z,7.43
2022-11-26T12:05:58.942Z,7.00
2022-11-26T12:09:16.847Z,7.13
2022-11-26T12:12:19.066Z,6.37
2022-11-26T12:15:02.471Z,7.30
2022-11-26T12:17:50.835Z,7.30
2022-11-26T12:20:31.080Z,7.60
2022-11-26T12:23:24.332Z,7.67
2022-11-26T12:26:08.930Z,8.20
2022-11-26T12:29:07.016Z,8.70
2022-11-26T12:31:33.143Z,7.77
2022-11-26T12:34:31.442Z,7.00
2022-11-26T12:37:18.193Z,6.33
2022-11-26T12:40:24.218Z,6.83
2022-11-26T12:43:37.437Z,6.17
2022-11-26T12:46:33.961Z,5.90
2022-11-26T12:49:17.491Z,6.70
2022-11-26T12:52:12.775Z,7.20
2022-11-26T12:54:52.866Z,6.17
2022-11-26T12:57:25.483Z,6.47
2022-11-26T13:00:06.054Z,6.70
2022-11-26T13:02:41.746Z,7.83
2022-11-26T13:05:19.159Z,9.70
2022-11-26T13:08:07.406Z,7.80
2022-11-26T13:11:12.636Z,7.13
2022-11-26T13:14:01.694Z,6.90
2022-11-26T13:16:43.066Z,6.87
2022-11-26T13:19:35.317Z,6.87
2022-11-26T13:22:55.362Z,6.60
2022-11-26T13:25:52.448Z,7.20
2022-11-26T13:28:53.948Z,6.33
2022-11-26T13:31:40.810Z,6.27
2022-11-26T13:34:57.683Z,6.63
2022-11-26T13:37:46.392Z,6.53
2022-11-26T13:40:40.994Z,6.43
2022-11-26T13:43:25.114Z,7.23
2022-11-26T13:46:09.073Z,6.73
2022-11-26T13:48:51.466Z,6.90
2022-11-26T13:51:48.297Z,6.40
2022-11-26T13:54:41.907Z,6.03
2022-11-26T13:57:16.324Z,6.00
2022-11-26T13:59:52.771Z,6.37
2022-11-26T14:02:37.324Z,5.80
2022-11-26T14:05:09.358Z,5.70
2022-11-26T14:07:36.222Z,5.97
2022-11-26T14:10:28.186Z,5.73
2022-11-26T14:13:03.164Z,7.30
2022-11-26T14:15:41.506Z,6.47
2022-11-26T14:18:13.907Z,5.60
2022-11-26T14:21:00.815Z,5.77
2022-11-26T14:23:54.204Z,6.13
2022-11-26T14:26:37.211Z,6.07
2022-11-26T14:29:06.480Z,5.47
2022-11-26T14:31:34.521Z,6.53
2022-11-26T14:34:33.172Z,6.43
2022-11-26T14:37:01.252Z,7.27
2022-11-26T14:39:28.765Z,6.60
2022-11-26T14:42:05.236Z,8.43
2022-11-26T14:44:32.960Z,7.77
2022-11-26T14:47:10.966Z,6.70
2022-11-26T14:49:47.791Z,7.60
2022-11-26T14:52:25.840Z,6.47
2022-11-26T14:54:57.468Z,6.67
2022-11-26T14:57:37.952Z,6.23
2022-11-26T15:00:27.150Z,7.80
2022-11-26T15:02:53.969Z,7.43
2022-11-26T15:05:25.802Z,6.00
2022-11-26T15:08:17.008Z,4.80
2022-11-26T15:10:53.777Z,8.30
2022-11-26T15:13:37.402Z,5.70
2022-11-26T15:16:23.957Z,4.70
2022-11-26T15:18:53.165Z,4.70
2022-11-26T15:21:25.042Z,5.60
2022-11-26T15:23:54.399Z,4.63
2022-11-26T15:26:25.154Z,4.17
2022-11-26T15:28:51.399Z,5.07
2022-11-26T15:31:17.713Z,4.70
2022-11-26T15:33:44.800Z,4.50
2022-11-26T15:36:17.163Z,4.40
2022-11-26T15:39:06.611Z,4.90
2022-11-26T15:41:42.416Z,4.40
2022-11-26T15:44:42.830Z,4.00
2022-11-26T15:47:19.456Z,3.93
2022-11-26T15:49:52.019Z,4.47
2022-11-26T15:52:25.247Z,4.40
2022-11-26T15:55:14.370Z,3.77
2022-11-26T15:57:41.970Z,4.80
2022-11-26T16:00:31.767Z,4.13
2022-11-26T16:02:58.179Z,5.20
2022-11-26T16:05:35.067Z,5.33
2022-11-26T16:08:31.611Z,4.90
2022-11-26T16:11:08.035Z,4.07
2022-11-26T16:13:35.392Z,4.97
2022-11-26T16:16:31.064Z,4.47
2022-11-26T16:18:59.338Z,4.10
2022-11-26T16:21:30.960Z,3.90
2022-11-26T16:24:02.061Z,4.13
2022-11-26T16:26:29.364Z,6.17
2022-11-26T16:28:55.741Z,4.43
2022-11-26T16:31:22.539Z,5.17
2022-11-26T16:33:48.777Z,15.70
2022-11-26T16:36:21.688Z,13.53
2022-11-26T16:38:48.846Z,17.97
2022-11-26T16:41:18.464Z,13.30
2022-11-26T16:43:44.754Z,19.80
2022-11-26T16:46:22.806Z,18.77
2022-11-26T16:48:50.398Z,11.87
2022-11-26T16:51:18.912Z,14.53
2022-11-26T16:53:45.188Z,11.27
2022-11-26T16:56:27.017Z,12.03
2022-11-26T16:58:56.836Z,8.93
2022-11-26T17:01:23.013Z,10.97
2022-11-26T17:03:49.255Z,8.60
2022-11-26T17:06:20.265Z,7.50
2022-11-26T17:08:49.842Z,16.37
2022-11-26T17:11:16.969Z,12.10
2022-11-26T17:13:43.147Z,10.13
2022-11-26T17:16:20.168Z,7.80
2022-11-26T17:18:47.692Z,8.30
2022-11-26T17:21:14.233Z,19.23
2022-11-26T17:23:40.600Z,14.27
2022-11-26T17:26:23.245Z,9.10
2022-11-26T17:28:50.194Z,8.63
2022-11-26T17:31:17.258Z,48.47
2022-11-26T17:33:43.637Z,24.93
2022-11-26T17:36:17.755Z,16.53
2022-11-26T17:38:44.503Z,15.20
2022-11-26T17:41:11.258Z,10.83
2022-11-26T17:43:37.913Z,10.70
2022-11-26T17:46:04.529Z,9.37
2022-11-26T17:48:30.813Z,16.70
2022-11-26T17:50:57.209Z,12.90
2022-11-26T17:53:23.350Z,11.57
2022-11-26T17:55:49.505Z,9.77
2022-11-26T17:58:15.677Z,10.87
2022-11-26T18:00:41.811Z,14.37
2022-11-26T18:03:08.439Z,13.40
2022-11-26T18:05:37.880Z,10.80
2022-11-26T18:08:06.765Z,10.17
2022-11-26T18:10:32.987Z,13.63
2022-11-26T18:12:59.141Z,13.53
2022-11-26T18:15:27.713Z,11.97
2022-11-26T18:17:54.993Z,11.67
2022-11-26T18:20:25.519Z,8.30
2022-11-26T18:22:56.186Z,20.67
2022-11-26T18:25:23.124Z,16.33
2022-11-26T18:27:49.546Z,12.97
2022-11-26T18:30:17.402Z,28.00
2022-11-26T18:32:43.682Z,15.60
2022-11-26T18:35:10.276Z,12.37
2022-11-26T18:37:39.139Z,15.10
2022-11-26T18:40:14.614Z,13.27
2022-11-26T18:42:40.955Z,14.30
2022-11-26T18:45:10.979Z,10.27
2022-11-26T18:47:37.550Z,11.23
2022-11-26T18:50:04.954Z,10.47
2022-11-26T18:52:31.196Z,9.90
2022-11-26T18:54:57.509Z,8.43
2022-11-26T18:57:23.651Z,12.63
2022-11-26T18:59:50.721Z,15.90
2022-11-26T19:02:17.044Z,18.67
2022-11-26T19:04:43.210Z,25.33
2022-11-26T19:07:13.062Z,25.27
2022-11-26T19:09:39.672Z,14.33
2022-11-26T19:12:06.311Z,11.83
2022-11-26T19:14:32.468Z,11.80
2022-11-26T19:16:58.663Z,11.73
2022-11-26T19:19:28.772Z,12.23
2022-11-26T19:22:00.746Z,12.13
2022-11-26T19:24:28.332Z,14.33
2022-11-26T19:26:54.491Z,13.80
2022-11-26T19:29:20.703Z,15.00
2022-11-26T19:31:46.817Z,13.43
2022-11-26T19:34:14.654Z,20.10
2022-11-26T19:36:41.390Z,20.93
2022-11-26T19:39:08.201Z,15.70
2022-11-26T19:41:34.424Z,15.50
2022-11-26T19:44:03.228Z,14.47
2022-11-26T19:46:29.566Z,13.30
2022-11-26T19:48:55.950Z,11.27
2022-11-26T19:51:25.629Z,10.10
2022-11-26T19:53:55.141Z,10.00
2022-11-26T19:56:28.347Z,10.37
2022-11-26T19:58:57.830Z,10.20
2022-11-26T20:01:26.517Z,8.67
2022-11-26T20:03:52.792Z,8.97
2022-11-26T20:06:25.872Z,7.07
2022-11-26T20:08:53.102Z,7.80
2022-11-26T20:11:19.727Z,6.60
2022-11-26T20:13:47.892Z,7.03
2022-11-26T20:16:24.501Z,7.23
2022-11-26T20:18:51.053Z,6.93
2022-11-26T20:21:26.283Z,9.50
2022-11-26T20:23:56.235Z,7.30
2022-11-26T20:26:33.924Z,10.63
2022-11-26T20:29:03.628Z,8.83
2022-11-26T20:31:30.417Z,9.63
2022-11-26T20:33:57.022Z,8.67
2022-11-26T20:36:23.535Z,6.90
2022-11-26T20:38:55.791Z,9.73
2022-11-26T20:41:23.560Z,8.17
2022-11-26T20:43:54.887Z,11.07
2022-11-26T20:46:25.514Z,6.90
2022-11-26T20:48:52.147Z,9.33
2022-11-26T20:51:21.000Z,7.80
2022-11-26T20:53:49.319Z,11.43
2022-11-26T20:56:20.473Z,10.63
2022-11-26T20:58:48.387Z,8.03
2022-11-26T21:01:19.275Z,10.10
2022-11-26T21:03:46.457Z,10.47
2022-11-26T21:06:14.796Z,9.30
2022-11-26T21:08:41.977Z,11.53
2022-11-26T21:11:08.880Z,10.63
2022-11-26T21:13:38.304Z,12.47
2022-11-26T21:16:07.484Z,11.93
2022-11-26T21:18:33.713Z,11.77
2022-11-26T21:21:07.141Z,12.10
2022-11-26T21:23:35.880Z,15.20
2022-11-26T21:26:06.630Z,15.77
2022-11-26T21:28:33.184Z,15.43
2022-11-26T21:31:06.097Z,14.83
2022-11-26T21:33:32.485Z,13.60
2022-11-26T21:36:08.261Z,12.83
2022-11-26T21:38:34.988Z,11.63
2022-11-26T21:41:11.715Z,10.53
2022-11-26T21:43:43.160Z,9.70
2022-11-26T21:46:15.716Z,9.40
2022-11-26T21:48:42.174Z,8.93
2022-11-26T21:51:15.607Z,7.90
2022-11-26T21:53:42.284Z,7.50
2022-11-26T21:56:15.927Z,6.70
2022-11-26T21:58:42.144Z,7.23
2022-11-26T22:01:28.508Z,7.20
2022-11-26T22:03:58.982Z,6.80
2022-11-26T22:06:25.691Z,6.57
2022-11-26T22:08:52.632Z,5.30
2022-11-26T22:11:24.957Z,6.20
2022-11-26T22:13:52.698Z,4.90
2022-11-26T22:16:22.801Z,5.70
2022-11-26T22:18:50.099Z,4.87
2022-11-26T22:21:21.603Z,4.83
2022-11-26T22:23:49.329Z,4.67
2022-11-26T22:26:15.964Z,4.93
2022-11-26T22:28:42.148Z,5.10
2022-11-26T22:31:17.627Z,5.27
2022-11-26T22:33:44.464Z,4.93
2022-11-26T22:36:11.655Z,4.67
2022-11-26T22:38:39.483Z,5.17
2022-11-26T22:41:11.200Z,5.63
2022-11-26T22:43:37.994Z,5.00
2022-11-26T22:46:16.688Z,5.10
2022-11-26T22:48:47.419Z,5.50
2022-11-26T22:51:13.786Z,5.17
2022-11-26T22:53:39.975Z,5.23
2022-11-26T22:56:06.623Z,5.27
2022-11-26T22:58:34.540Z,5.40
2022-11-26T23:01:07.703Z,5.87
2022-11-26T23:03:36.688Z,5.67
2022-11-26T23:06:07.875Z,5.40
2022-11-26T23:08:35.699Z,6.13
2022-11-26T23:11:18.765Z,5.17
2022-11-26T23:13:47.227Z,5.53
2022-11-26T23:16:14.331Z,6.17
2022-11-26T23:18:40.938Z,5.83
2022-11-26T23:21:20.358Z,5.57
2022-11-26T23:23:47.263Z,5.93
2022-11-26T23:26:25.016Z,6.40
2022-11-26T23:28:55.096Z,6.27
2022-11-26T23:31:25.737Z,6.27
2022-11-26T23:33:52.861Z,6.20
2022-11-26T23:36:19.940Z,5.57
2022-11-26T23:38:46.697Z,6.00
2022-11-26T23:41:13.524Z,6.03
2022-11-26T23:43:40.860Z,5.70
2022-11-26T23:46:13.375Z,6.70
2022-11-26T23:48:40.434Z,6.73
2022-11-26T23:51:10.586Z,5.80
2022-11-26T23:53:39.450Z,6.47
2022-11-26T23:56:11.775Z,6.50
2022-11-26T23:58:37.961Z,7.17
